Time;durP1;ratioP1;P1;durP2;ratioP2;P2;SDS_P1;SDS_P2;PMS_P1;PMS_P2;Temp;Humidity;BMP_temperature;BMP_pressure;BME280_temperature;BME280_humidity;BME280_pressure;Samples;Min_cycle;Max_cycle;Signal;HPM_P1;HPM_P2
2023/01/04 00:01:13;;;;;;;9.60;3.27;;;8.40;99.90;;;;;;5064662;28;20297;-77
2023/01/04 00:03:39;;;;;;;5.80;3.10;;;8.50;99.90;;;;;;5068900;28;20179;-77
2023/01/04 00:06:10;;;;;;;9.60;3.27;;;8.40;99.90;;;;;;5064311;28;20214;-78
2023/01/04 00:08:36;;;;;;;8.03;3.40;;;8.40;99.90;;;;;;5061535;28;20266;-77
2023/01/04 00:11:07;;;;;;;7.77;3.00;;;8.40;99.90;;;;;;5057304;28;20239;-77
2023/01/04 00:13:34;;;;;;;6.97;3.20;;;8.40;99.90;;;;;;5063460;28;20221;-78
2023/01/04 00:16:11;;;;;;;6.30;3.63;;;8.30;99.90;;;;;;5043295;28;20210;-77
2023/01/04 00:18:37;;;;;;;12.23;3.50;;;8.30;99.90;;;;;;5060436;28;20209;-77
2023/01/04 00:21:18;;;;;;;8.27;3.50;;;8.20;99.90;;;;;;5065826;28;20210;-78
2023/01/04 00:23:49;;;;;;;5.87;3.07;;;8.30;99.90;;;;;;5066403;28;20862;-77
2023/01/04 00:26:20;;;;;;;7.83;3.57;;;8.20;99.90;;;;;;5054806;28;20213;-77
2023/01/04 00:28:47;;;;;;;5.83;3.20;;;8.20;99.90;;;;;;5066154;28;20175;-77
2023/01/04 00:31:14;;;;;;;9.20;3.80;;;8.20;99.90;;;;;;5064899;28;20190;-77
2023/01/04 00:33:41;;;;;;;6.87;3.53;;;8.20;99.90;;;;;;5065374;28;20555;-77
2023/01/04 00:36:13;;;;;;;7.77;3.20;;;8.20;99.90;;;;;;5065198;28;20182;-78
2023/01/04 00:38:41;;;;;;;7.67;3.23;;;8.20;99.90;;;;;;5066304;28;20635;-78
2023/01/04 00:41:10;;;;;;;7.20;2.87;;;8.10;99.90;;;;;;5065310;28;20230;-78
2023/01/04 00:43:36;;;;;;;7.50;3.10;;;8.10;99.90;;;;;;5059446;28;20999;-78
2023/01/04 00:46:04;;;;;;;7.90;3.30;;;8.00;99.90;;;;;;5076352;28;20313;-78
2023/01/04 00:48:30;;;;;;;8.17;3.03;;;8.00;99.90;;;;;;5049783;28;20767;-78
2023/01/04 00:50:58;;;;;;;3.80;2.70;;;8.00;99.90;;;;;;5065515;28;20194;-78
2023/01/04 00:53:25;;;;;;;8.00;3.33;;;8.00;99.90;;;;;;5067566;28;20269;-78
2023/01/04 00:55:51;;;;;;;7.30;3.07;;;8.10;99.90;;;;;;5066439;28;20194;-77
2023/01/04 00:58:21;;;;;;;5.57;3.30;;;8.00;99.90;;;;;;5049646;28;20639;-77
2023/01/04 01:00:47;;;;;;;6.20;2.90;;;8.10;99.90;;;;;;5059814;28;20751;-78
2023/01/04 01:03:13;;;;;;;5.67;3.30;;;8.10;99.90;;;;;;5068092;28;20282;-78
2023/01/04 01:05:40;;;;;;;4.97;2.73;;;8.00;99.90;;;;;;5067214;28;20722;-78
2023/01/04 01:08:25;;;;;;;5.80;3.10;;;8.00;99.90;;;;;;5078608;28;21181;-78
2023/01/04 01:10:53;;;;;;;7.73;3.70;;;7.90;99.90;;;;;;5064011;28;20191;-78
2023/01/04 01:13:21;;;;;;;6.37;3.17;;;8.00;99.90;;;;;;5045778;28;20187;-78
2023/01/04 01:15:48;;;;;;;5.23;3.30;;;8.00;99.90;;;;;;5065383;28;20663;-78
2023/01/04 01:18:14;;;;;;;7.77;3.33;;;8.00;99.90;;;;;;5048279;28;20233;-78
2023/01/04 01:20:43;;;;;;;9.00;3.10;;;8.00;99.90;;;;;;5065050;28;20294;-78
2023/01/04 01:23:14;;;;;;;7.90;3.63;;;7.90;99.90;;;;;;5048476;28;20636;-78
2023/01/04 01:25:41;;;;;;;7.57;3.27;;;7.90;99.90;;;;;;5065247;28;20532;-78
2023/01/04 01:28:08;;;;;;;7.50;3.30;;;7.80;99.90;;;;;;5064019;28;20190;-78
2023/01/04 01:30:40;;;;;;;8.23;3.27;;;7.80;99.90;;;;;;5064345;28;20242;-78
2023/01/04 01:33:09;;;;;;;6.50;3.33;;;7.70;99.90;;;;;;5068664;28;20178;-78
2023/01/04 01:35:36;;;;;;;6.97;3.43;;;7.70;99.90;;;;;;5068166;28;20186;-78
2023/01/04 01:38:03;;;;;;;8.83;3.10;;;7.70;99.90;;;;;;5066440;28;20195;-78
2023/01/04 01:40:29;;;;;;;5.73;3.50;;;7.70;99.90;;;;;;5062178;28;20199;-78
2023/01/04 01:42:55;;;;;;;6.53;3.87;;;7.80;99.90;;;;;;5070819;28;20316;-78
2023/01/04 01:45:30;;;;;;;10.17;4.73;;;7.80;99.90;;;;;;5068548;28;20179;-78
2023/01/04 01:48:11;;;;;;;9.30;3.90;;;7.80;99.90;;;;;;5065326;28;20193;-78
2023/01/04 01:50:49;;;;;;;7.20;4.10;;;7.80;99.90;;;;;;5049852;28;20304;-78
2023/01/04 01:53:16;;;;;;;8.30;4.03;;;7.80;99.90;;;;;;5062451;28;20191;-77
2023/01/04 01:55:48;;;;;;;6.83;3.70;;;7.80;99.90;;;;;;5079158;28;20198;-78
2023/01/04 01:58:33;;;;;;;7.93;4.20;;;7.80;99.90;;;;;;5058004;28;20249;-78
2023/01/04 02:01:01;;;;;;;8.83;4.10;;;7.80;99.90;;;;;;5066526;28;20742;-78
2023/01/04 02:03:46;;;;;;;8.17;4.23;;;7.80;99.90;;;;;;5052721;28;20178;-78
2023/01/04 02:06:22;;;;;;;7.87;3.80;;;7.70;99.90;;;;;;5067795;28;20179;-78
2023/01/04 02:08:50;;;;;;;10.47;4.73;;;7.70;99.90;;;;;;5050121;28;20641;-78
2023/01/04 02:11:17;;;;;;;10.50;4.23;;;7.70;99.90;;;;;;5065872;28;20983;-78
2023/01/04 02:17:04;;;;;;;7.40;4.07;;;7.60;99.90;;;;;;5069178;28;20183;-78
2023/01/04 02:20:10;;;;;;;9.40;4.63;;;7.70;99.90;;;;;;5076337;28;20195;-78
2023/01/04 02:22:57;;;;;;;12.70;4.27;;;7.70;99.90;;;;;;5051013;28;20191;-77
2023/01/04 02:25:57;;;;;;;10.73;4.17;;;7.70;99.90;;;;;;5065311;28;20240;-78
2023/01/04 02:29:11;;;;;;;5.77;3.73;;;7.60;99.90;;;;;;5057350;28;20205;-78
2023/01/04 02:31:41;;;;;;;8.77;4.33;;;7.60;99.90;;;;;;5061391;28;20252;-77
2023/01/04 02:34:28;;;;;;;8.97;4.40;;;7.60;99.90;;;;;;5062365;28;20195;-78
2023/01/04 02:37:28;;;;;;;11.67;4.00;;;7.60;99.90;;;;;;5067340;28;20206;-77
2023/01/04 02:40:31;;;;;;;9.27;4.47;;;7.50;99.90;;;;;;5067528;28;20871;-77
2023/01/04 02:46:11;;;;;;;9.17;4.03;;;7.60;99.90;;;;;;5065579;28;20183;-78
2023/01/04 02:51:37;;;;;;;6.47;4.00;;;7.50;99.90;;;;;;5085918;28;20210;-76
2023/01/04 02:54:31;;;;;;;8.60;3.90;;;7.50;99.90;;;;;;5065172;28;20191;-77
2023/01/04 02:57:12;;;;;;;7.87;4.40;;;7.50;99.90;;;;;;5066279;28;20195;-76
2023/01/04 02:59:39;;;;;;;8.43;3.93;;;7.50;99.90;;;;;;5068255;28;20182;-76
2023/01/04 03:06:43;;;;;;;6.53;3.67;;;7.50;99.90;;;;;;5060221;28;20632;-77
2023/01/04 03:09:22;;;;;;;5.80;3.60;;;7.40;99.90;;;;;;5036964;28;20204;-77
2023/01/04 03:15:04;;;;;;;5.80;3.60;;;7.30;99.90;;;;;;5065474;28;20739;-76
2023/01/04 03:18:02;;;;;;;7.23;3.83;;;7.30;99.90;;;;;;5066600;28;20183;-76
2023/01/04 03:20:31;;;;;;;7.37;3.70;;;7.30;99.90;;;;;;5048573;28;20218;-77
2023/01/04 03:35:36;;;;;;;7.87;3.93;;;7.40;99.90;;;;;;5066375;28;20194;-76
2023/01/04 03:48:28;;;;;;;10.37;4.10;;;7.50;99.90;;;;;;5067590;28;20206;-76
2023/01/04 03:51:04;;;;;;;8.57;4.20;;;7.50;99.90;;;;;;5066424;28;20199;-77
2023/01/04 03:53:39;;;;;;;7.00;4.13;;;7.60;99.90;;;;;;5067236;28;20174;-77
2023/01/04 03:56:09;;;;;;;6.30;3.93;;;7.60;99.90;;;;;;5070723;28;20564;-77
2023/01/04 03:58:36;;;;;;;7.17;4.43;;;7.70;99.90;;;;;;5049190;28;20186;-76
2023/01/04 04:01:05;;;;;;;6.93;4.43;;;7.70;99.90;;;;;;5064577;28;20540;-77
2023/01/04 04:09:03;;;;;;;9.77;4.60;;;7.70;99.90;;;;;;5064617;28;20198;-77
2023/01/04 04:11:29;;;;;;;9.00;5.13;;;7.70;99.90;;;;;;5052641;28;20255;-76
2023/01/04 04:13:58;;;;;;;10.30;4.87;;;7.80;99.90;;;;;;5049942;28;20604;-76
2023/01/04 04:16:26;;;;;;;15.13;5.20;;;7.80;99.90;;;;;;5066531;28;20191;-77
2023/01/04 04:18:52;;;;;;;8.43;5.00;;;7.80;99.90;;;;;;5061302;28;20194;-76
2023/01/04 04:21:19;;;;;;;8.50;5.10;;;7.80;99.90;;;;;;5054191;28;20202;-77
2023/01/04 04:23:45;;;;;;;12.37;5.50;;;7.80;99.90;;;;;;5044601;28;20687;-76
2023/01/04 04:26:11;;;;;;;13.30;5.83;;;7.80;99.90;;;;;;5047268;28;20188;-77
2023/01/04 04:28:38;;;;;;;11.90;5.00;;;7.80;99.90;;;;;;5066733;28;20218;-77
2023/01/04 04:31:05;;;;;;;11.30;5.27;;;7.90;99.90;;;;;;5064902;28;20186;-76
2023/01/04 04:33:34;;;;;;;16.77;5.97;;;7.80;99.90;;;;;;5079251;28;20792;-77
2023/01/04 04:36:01;;;;;;;14.97;5.37;;;7.80;99.90;;;;;;5066678;28;20195;-77
2023/01/04 04:38:27;;;;;;;12.30;4.90;;;7.70;99.90;;;;;;5063583;28;20191;-77
2023/01/04 04:43:39;;;;;;;10.33;5.20;;;7.60;99.90;;;;;;5047001;28;20179;-76
2023/01/04 04:46:05;;;;;;;11.60;5.30;;;7.60;99.90;;;;;;5063556;28;20182;-77
2023/01/04 04:48:31;;;;;;;9.13;5.20;;;7.60;99.90;;;;;;5049846;28;20206;-77
2023/01/04 04:50:58;;;;;;;9.87;4.80;;;7.60;99.90;;;;;;5064914;28;20260;-76
2023/01/04 04:53:25;;;;;;;8.73;5.40;;;7.60;99.90;;;;;;5061389;28;20312;-77
2023/01/04 04:55:53;;;;;;;17.67;5.17;;;7.60;99.90;;;;;;5067902;28;20182;-77
2023/01/04 04:58:21;;;;;;;12.07;5.30;;;7.70;99.90;;;;;;5067287;28;20361;-77
2023/01/04 05:00:48;;;;;;;10.10;5.33;;;7.70;99.90;;;;;;5064274;28;20265;-77
2023/01/04 05:03:14;;;;;;;12.93;5.60;;;7.70;99.90;;;;;;5065687;28;20266;-77
2023/01/04 05:05:41;;;;;;;9.97;5.40;;;7.70;99.90;;;;;;5046655;28;20190;-77
2023/01/04 05:08:07;;;;;;;13.57;5.60;;;7.80;99.90;;;;;;5063495;28;20210;-77
2023/01/04 05:10:34;;;;;;;10.23;4.80;;;7.80;99.90;;;;;;5053372;28;20186;-77
2023/01/04 05:13:00;;;;;;;8.47;5.50;;;7.80;99.90;;;;;;5053787;28;20194;-77
2023/01/04 05:15:45;;;;;;;13.27;5.90;;;7.80;99.90;;;;;;5069430;28;20270;-77
2023/01/04 05:18:14;;;;;;;13.97;5.33;;;7.80;99.90;;;;;;5070029;28;20186;-77
2023/01/04 05:20:41;;;;;;;8.77;4.73;;;7.70;99.90;;;;;;5050096;28;20264;-77
2023/01/04 05:23:10;;;;;;;11.10;5.27;;;7.70;99.90;;;;;;5069488;28;20201;-76
2023/01/04 05:25:36;;;;;;;8.63;5.33;;;7.70;99.90;;;;;;5062656;28;20583;-77
2023/01/04 05:28:03;;;;;;;11.77;5.60;;;7.70;99.90;;;;;;5067906;28;20614;-77
2023/01/04 05:33:17;;;;;;;9.43;5.07;;;7.70;99.90;;;;;;5070408;28;20245;-77
2023/01/04 05:35:43;;;;;;;9.97;5.57;;;7.70;99.90;;;;;;5069919;28;20179;-77
2023/01/04 05:38:09;;;;;;;13.00;5.33;;;7.70;99.90;;;;;;5071789;28;20182;-77
2023/01/04 05:40:36;;;;;;;14.23;5.37;;;7.70;99.90;;;;;;5083663;28;20238;-76
2023/01/04 05:43:03;;;;;;;9.07;5.03;;;7.70;99.90;;;;;;5069183;28;20268;-77
2023/01/04 05:45:30;;;;;;;16.20;5.73;;;7.70;99.90;;;;;;5065155;28;20582;-77
2023/01/04 05:47:56;;;;;;;11.30;5.17;;;7.60;99.90;;;;;;5052909;28;20183;-77
2023/01/04 05:50:23;;;;;;;12.60;5.43;;;7.70;99.90;;;;;;5069656;28;20178;-77
2023/01/04 05:52:51;;;;;;;14.83;5.23;;;7.70;99.90;;;;;;5071545;28;20266;-77
2023/01/04 05:55:18;;;;;;;13.07;5.97;;;7.70;99.90;;;;;;5069366;28;20274;-77
2023/01/04 05:57:45;;;;;;;10.60;5.60;;;7.60;99.90;;;;;;5068915;28;20193;-77
2023/01/04 06:00:13;;;;;;;9.80;5.87;;;7.60;99.90;;;;;;5084769;28;20175;-77
2023/01/04 06:02:41;;;;;;;8.77;5.27;;;7.60;99.90;;;;;;5071371;28;20273;-77
2023/01/04 06:05:09;;;;;;;9.07;5.33;;;7.60;99.90;;;;;;5067849;28;20191;-77
2023/01/04 06:07:37;;;;;;;10.60;5.37;;;7.60;99.90;;;;;;5052628;28;20237;-77
2023/01/04 06:10:05;;;;;;;12.73;5.90;;;7.60;99.90;;;;;;5052106;28;20570;-77
2023/01/04 06:12:32;;;;;;;11.17;5.50;;;7.70;99.90;;;;;;5067857;28;20259;-77
2023/01/04 06:14:58;;;;;;;9.53;5.03;;;7.70;99.90;;;;;;5068287;28;20290;-77
2023/01/04 06:17:24;;;;;;;11.23;5.80;;;7.80;99.90;;;;;;5060078;28;20187;-77
2023/01/04 06:19:51;;;;;;;8.97;5.00;;;7.80;99.90;;;;;;5075673;28;20226;-77
2023/01/04 06:22:18;;;;;;;10.57;5.70;;;7.80;99.90;;;;;;5051375;28;20276;-76
2023/01/04 06:24:44;;;;;;;8.63;5.73;;;7.90;99.90;;;;;;5068331;28;20280;-77
2023/01/04 06:27:10;;;;;;;8.37;5.33;;;7.90;99.90;;;;;;5069710;28;20203;-77
2023/01/04 06:29:37;;;;;;;12.30;5.63;;;8.00;99.90;;;;;;5065677;28;20270;-77
2023/01/04 06:32:03;;;;;;;9.43;5.43;;;8.10;99.90;;;;;;5065298;28;20182;-77
2023/01/04 06:34:30;;;;;;;10.70;5.40;;;8.10;99.90;;;;;;5066693;28;20189;-77
2023/01/04 06:36:58;;;;;;;9.93;5.37;;;8.20;99.90;;;;;;5068677;28;20300;-77
2023/01/04 06:39:24;;;;;;;8.00;5.07;;;8.30;99.90;;;;;;5050897;28;20183;-77
2023/01/04 06:41:50;;;;;;;8.70;5.43;;;8.30;99.90;;;;;;5063261;28;20296;-77
2023/01/04 06:44:17;;;;;;;7.67;4.90;;;8.40;99.90;;;;;;5066491;28;20183;-77
2023/01/04 06:46:44;;;;;;;7.83;5.10;;;8.50;99.90;;;;;;5063141;28;20200;-77
2023/01/04 06:49:10;;;;;;;10.23;4.70;;;8.60;99.90;;;;;;5048864;28;20271;-77
2023/01/04 06:51:37;;;;;;;10.73;5.23;;;8.60;99.90;;;;;;5063261;28;20580;-77
2023/01/04 06:54:03;;;;;;;7.37;4.90;;;8.70;99.90;;;;;;5065836;28;20712;-77
2023/01/04 06:56:31;;;;;;;7.40;4.77;;;8.80;99.90;;;;;;5052175;28;20175;-77
2023/01/04 06:58:57;;;;;;;8.27;4.67;;;8.80;99.90;;;;;;5051065;28;20199;-77
2023/01/04 07:01:23;;;;;;;6.80;4.40;;;8.90;99.90;;;;;;5066736;28;20663;-77
2023/01/04 07:03:50;;;;;;;12.13;4.70;;;9.00;99.90;;;;;;5042817;28;20182;-77
2023/01/04 07:06:16;;;;;;;6.63;4.40;;;9.00;99.90;;;;;;5066241;28;20182;-77
2023/01/04 07:08:43;;;;;;;7.97;4.63;;;9.10;99.90;;;;;;5069091;28;20190;-77
2023/01/04 07:11:09;;;;;;;8.90;4.73;;;9.10;99.90;;;;;;5064909;28;20191;-77
2023/01/04 07:13:35;;;;;;;6.43;4.53;;;9.20;99.90;;;;;;5073274;28;21124;-77
2023/01/04 07:16:01;;;;;;;9.73;4.40;;;9.30;99.90;;;;;;5065784;28;20190;-77
2023/01/04 07:18:28;;;;;;;8.33;4.47;;;9.40;99.90;;;;;;5066980;28;20186;-77
2023/01/04 07:20:55;;;;;;;8.37;4.23;;;9.40;99.90;;;;;;5064846;28;20312;-77
2023/01/04 07:23:21;;;;;;;9.30;4.60;;;9.60;99.90;;;;;;5042094;28;20194;-77
2023/01/04 07:25:47;;;;;;;8.47;4.70;;;9.60;99.90;;;;;;5083248;28;20195;-78
2023/01/04 07:29:13;;;;;;;11.40;5.27;;;9.60;99.90;;;;;;5050533;28;20183;-77
2023/01/04 07:31:07;;;;;;;8.43;5.03;;;9.60;99.90;;;;;;5081751;28;20265;-77
2023/01/04 07:33:33;;;;;;;12.70;5.60;;;9.70;99.90;;;;;;5067577;28;20179;-77
2023/01/04 07:36:07;;;;;;;9.60;5.10;;;9.80;99.90;;;;;;5067458;28;20278;-78
2023/01/04 07:38:34;;;;;;;6.93;4.77;;;9.80;99.90;;;;;;5047737;28;20266;-77
2023/01/04 07:41:01;;;;;;;8.90;4.70;;;10.00;99.90;;;;;;5062333;28;20203;-78
2023/01/04 07:43:27;;;;;;;9.53;4.77;;;10.70;99.90;;;;;;5065538;28;20205;-77
2023/01/04 07:45:54;;;;;;;9.13;4.53;;;10.70;99.90;;;;;;5063929;28;20194;-77
2023/01/04 07:48:24;;;;;;;13.23;5.03;;;10.40;99.90;;;;;;5065919;28;20276;-77
2023/01/04 07:50:50;;;;;;;8.23;4.47;;;10.20;99.90;;;;;;5057895;28;20324;-77
2023/01/04 07:53:17;;;;;;;6.63;4.07;;;10.10;99.90;;;;;;5065194;28;20195;-77
2023/01/04 07:55:43;;;;;;;13.20;5.30;;;10.10;99.90;;;;;;5078125;28;20482;-78
2023/01/04 07:58:11;;;;;;;7.40;4.43;;;10.00;99.90;;;;;;5062969;28;20266;-78
2023/01/04 08:00:37;;;;;;;7.77;4.60;;;10.00;99.90;;;;;;5057456;28;20346;-77
2023/01/04 08:03:04;;;;;;;11.63;4.93;;;10.00;99.90;;;;;;5047292;28;20543;-77
2023/01/04 08:05:34;;;;;;;8.30;4.73;;;10.00;99.90;;;;;;5049135;28;20179;-77
2023/01/04 08:08:01;;;;;;;10.50;5.13;;;10.00;99.90;;;;;;5068203;28;20178;-78
2023/01/04 08:10:28;;;;;;;12.53;5.10;;;10.10;99.90;;;;;;5069450;28;20175;-77
2023/01/04 08:12:57;;;;;;;9.03;4.90;;;10.20;99.90;;;;;;5067672;28;20194;-78
2023/01/04 08:15:23;;;;;;;8.77;4.93;;;10.20;99.90;;;;;;5060685;28;20195;-77
2023/01/04 08:17:50;;;;;;;8.60;5.03;;;10.30;99.90;;;;;;5043865;28;20185;-77
2023/01/04 08:20:16;;;;;;;9.83;4.93;;;10.30;99.90;;;;;;5048923;28;20190;-78
2023/01/04 08:22:42;;;;;;;8.60;4.40;;;10.30;99.90;;;;;;5066341;28;20190;-77
2023/01/04 08:25:09;;;;;;;10.37;4.13;;;10.40;99.90;;;;;;5066403;28;20188;-77
2023/01/04 08:27:37;;;;;;;11.67;4.50;;;10.40;99.90;;;;;;5066856;28;20171;-78
2023/01/04 08:30:05;;;;;;;6.53;4.00;;;10.40;99.90;;;;;;5048973;28;20195;-78
2023/01/04 08:32:31;;;;;;;8.53;4.57;;;10.50;99.90;;;;;;5064927;28;20232;-77
2023/01/04 08:34:58;;;;;;;8.43;3.83;;;10.60;99.90;;;;;;5065834;28;20199;-78
2023/01/04 08:37:25;;;;;;;6.70;3.80;;;10.60;99.90;;;;;;5044785;28;20671;-77
2023/01/04 08:39:52;;;;;;;15.57;4.20;;;10.70;99.90;;;;;;5053357;28;20241;-78
2023/01/04 08:42:18;;;;;;;5.80;3.50;;;10.80;99.90;;;;;;5044841;28;20243;-78
2023/01/04 08:44:44;;;;;;;8.20;4.03;;;10.80;99.90;;;;;;5047849;28;20240;-78
2023/01/04 08:47:11;;;;;;;8.37;4.30;;;10.80;99.90;;;;;;5065018;28;20590;-78
2023/01/04 08:49:37;;;;;;;10.43;4.83;;;10.90;99.90;;;;;;5065649;28;20203;-77
2023/01/04 08:52:04;;;;;;;8.20;4.80;;;10.90;99.90;;;;;;5064371;28;20205;-77
2023/01/04 08:54:31;;;;;;;7.07;4.53;;;11.00;99.90;;;;;;5066920;28;20210;-78
2023/01/04 08:56:58;;;;;;;8.83;4.90;;;11.00;99.90;;;;;;5048518;28;20194;-79
2023/01/04 08:59:25;;;;;;;11.77;4.70;;;11.10;99.90;;;;;;5049192;28;20536;-78
2023/01/04 09:01:51;;;;;;;8.50;4.43;;;11.10;99.90;;;;;;5047718;28;20297;-78
2023/01/04 09:04:17;;;;;;;10.17;4.33;;;11.10;99.90;;;;;;5062234;28;20681;-78
2023/01/04 09:06:44;;;;;;;7.97;4.27;;;11.20;99.90;;;;;;5044615;28;20506;-78
2023/01/04 09:09:10;;;;;;;8.57;4.37;;;11.20;99.90;;;;;;5055047;28;20657;-77
2023/01/04 09:11:38;;;;;;;6.80;4.30;;;11.20;99.90;;;;;;5063333;28;20197;-78
2023/01/04 09:14:04;;;;;;;7.30;3.97;;;11.30;99.90;;;;;;5040727;28;20190;-77
2023/01/04 09:16:30;;;;;;;9.90;4.67;;;11.40;99.90;;;;;;5057951;28;20320;-78
2023/01/04 09:18:56;;;;;;;7.10;4.10;;;11.80;99.90;;;;;;5060274;28;20657;-77
2023/01/04 09:21:23;;;;;;;13.13;4.30;;;11.90;99.90;;;;;;5037891;28;20214;-77
2023/01/04 09:23:49;;;;;;;12.27;4.57;;;12.00;99.90;;;;;;5036245;28;20624;-78
2023/01/04 09:26:21;;;;;;;12.80;5.07;;;12.10;99.90;;;;;;5053473;28;20180;-77
2023/01/04 09:28:52;;;;;;;11.60;4.93;;;12.20;99.90;;;;;;5057208;28;20663;-77
2023/01/04 09:31:23;;;;;;;6.33;4.20;;;12.20;99.90;;;;;;5038921;28;20199;-78
2023/01/04 09:33:50;;;;;;;9.93;4.70;;;12.30;99.90;;;;;;5044760;28;20317;-77
2023/01/04 09:36:18;;;;;;;8.43;4.97;;;12.40;99.90;;;;;;5047015;28;20188;-78
2023/01/04 09:38:48;;;;;;;8.83;4.43;;;12.50;99.90;;;;;;5044707;28;20202;-78
2023/01/04 09:41:24;;;;;;;10.30;4.97;;;12.50;99.90;;;;;;5043061;28;20502;-78
2023/01/04 09:44:00;;;;;;;6.60;4.00;;;12.50;99.90;;;;;;5045726;28;20190;-78
2023/01/04 09:46:46;;;;;;;6.50;4.53;;;12.60;99.90;;;;;;5038722;28;20278;-77
2023/01/04 09:49:51;;;;;;;7.97;4.20;;;12.60;99.90;;;;;;5052720;28;20245;-78
2023/01/04 09:52:25;;;;;;;7.80;4.47;;;12.70;99.90;;;;;;5040861;28;20195;-76
2023/01/04 09:54:59;;;;;;;7.33;4.10;;;12.80;99.90;;;;;;5056863;28;20214;-77
2023/01/04 09:57:36;;;;;;;7.10;3.70;;;12.80;99.90;;;;;;5036557;28;20596;-77
2023/01/04 10:00:21;;;;;;;9.77;4.17;;;12.90;99.90;;;;;;5043413;28;20191;-77
2023/01/04 10:03:02;;;;;;;7.80;3.87;;;13.00;99.90;;;;;;5032821;28;20483;-77
2023/01/04 10:05:33;;;;;;;6.27;3.70;;;13.10;99.90;;;;;;5048956;28;20194;-77
2023/01/04 10:08:02;;;;;;;6.73;4.00;;;13.20;99.90;;;;;;5065904;28;20221;-78
2023/01/04 10:10:47;;;;;;;7.03;3.83;;;13.20;99.90;;;;;;5048453;28;20198;-77
2023/01/04 10:13:47;;;;;;;6.80;4.00;;;13.10;99.90;;;;;;5032737;28;20215;-78
2023/01/04 10:16:31;;;;;;;7.13;3.60;;;13.30;99.90;;;;;;5019556;28;20191;-78
2023/01/04 10:19:17;;;;;;;5.73;3.10;;;13.30;99.90;;;;;;5016056;28;20205;-78
2023/01/04 10:21:55;;;;;;;8.40;3.70;;;13.50;99.90;;;;;;5049970;28;20218;-78
2023/01/04 10:24:39;;;;;;;7.67;3.40;;;13.50;99.90;;;;;;5058997;28;20199;-78
2023/01/04 10:27:22;;;;;;;8.53;3.30;;;13.50;99.90;;;;;;5063602;28;20241;-78
2023/01/04 10:30:19;;;;;;;7.40;3.20;;;13.60;99.90;;;;;;5048672;28;20244;-78
2023/01/04 10:33:03;;;;;;;7.43;3.63;;;13.70;99.90;;;;;;5040377;28;20210;-77
2023/01/04 10:35:34;;;;;;;4.93;3.03;;;13.70;99.90;;;;;;5029129;28;20184;-77
2023/01/04 10:38:03;;;;;;;7.70;3.20;;;13.80;99.90;;;;;;5049893;28;20282;-77
2023/01/04 10:40:38;;;;;;;9.03;3.53;;;13.80;99.90;;;;;;5043384;28;20186;-78
2023/01/04 10:43:27;;;;;;;7.53;3.70;;;13.90;99.90;;;;;;5047533;28;20278;-78
2023/01/04 10:46:36;;;;;;;13.93;3.27;;;14.00;99.90;;;;;;5060400;28;20195;-77
2023/01/04 10:49:53;;;;;;;10.60;3.47;;;14.00;99.90;;;;;;5023113;28;20187;-76
2023/01/04 10:52:37;;;;;;;4.90;3.20;;;14.10;99.90;;;;;;5039690;28;20183;-76
2023/01/04 10:55:58;;;;;;;6.20;3.20;;;14.30;99.90;;;;;;5048022;28;20652;-76
2023/01/04 10:58:41;;;;;;;6.90;3.40;;;14.50;99.90;;;;;;5038245;28;20209;-76
2023/01/04 11:01:29;;;;;;;8.90;3.47;;;14.70;99.90;;;;;;5057741;28;20942;-76
2023/01/04 11:04:15;;;;;;;4.90;3.10;;;14.70;99.90;;;;;;5046142;28;20202;-76
2023/01/04 11:07:22;;;;;;;6.47;3.43;;;14.80;99.90;;;;;;5043835;28;20934;-76
2023/01/04 11:10:06;;;;;;;6.73;3.53;;;14.80;99.90;;;;;;5041764;28;20625;-76
2023/01/04 11:12:32;;;;;;;5.50;3.40;;;14.90;99.90;;;;;;5058552;28;20184;-76
2023/01/04 11:14:59;;;;;;;8.23;3.97;;;15.10;99.90;;;;;;5024854;28;20294;-75
2023/01/04 11:17:26;;;;;;;8.77;3.90;;;15.20;99.90;;;;;;5045788;28;20202;-75
2023/01/04 11:19:53;;;;;;;6.00;3.63;;;15.30;99.90;;;;;;5061044;28;20183;-76
2023/01/04 11:22:25;;;;;;;8.27;3.30;;;15.40;99.90;;;;;;5020996;28;20211;-76
2023/01/04 11:25:06;;;;;;;6.30;3.97;;;15.50;99.90;;;;;;5051030;28;20184;-76
2023/01/04 11:28:16;;;;;;;6.60;3.10;;;15.40;99.90;;;;;;5040759;28;20188;-75
2023/01/04 11:30:57;;;;;;;5.57;3.47;;;15.60;99.90;;;;;;5036072;28;20200;-76
2023/01/04 11:33:24;;;;;;;11.27;3.93;;;15.50;99.90;;;;;;5047167;28;20198;-76
2023/01/04 11:35:58;;;;;;;6.10;3.37;;;15.50;99.90;;;;;;5040604;28;20321;-76
2023/01/04 11:38:29;;;;;;;6.77;4.07;;;15.50;99.90;;;;;;5041584;28;20302;-75
2023/01/04 11:41:05;;;;;;;5.90;3.20;;;15.50;99.90;;;;;;5058571;28;20208;-75
2023/01/04 11:43:38;;;;;;;6.80;3.50;;;15.60;99.90;;;;;;5060206;28;20589;-76
2023/01/04 11:46:23;;;;;;;7.67;3.60;;;15.60;99.90;;;;;;5042798;28;20207;-76
2023/01/04 11:48:51;;;;;;;5.33;3.30;;;15.60;99.90;;;;;;5060559;28;20640;-75
2023/01/04 11:51:25;;;;;;;6.97;4.03;;;15.60;99.90;;;;;;5021109;28;20753;-76
2023/01/04 11:54:06;;;;;;;8.60;3.50;;;15.60;99.90;;;;;;5052541;28;20188;-76
2023/01/04 11:56:37;;;;;;;10.07;4.00;;;15.70;99.90;;;;;;5026299;28;20340;-75
2023/01/04 11:59:06;;;;;;;7.73;3.90;;;15.60;99.90;;;;;;5054304;28;20200;-76
2023/01/04 12:01:37;;;;;;;4.97;3.20;;;15.70;99.90;;;;;;5063048;28;20214;-76
2023/01/04 12:04:22;;;;;;;6.70;3.77;;;15.70;99.90;;;;;;5043327;28;20275;-76
2023/01/04 12:06:55;;;;;;;9.87;3.77;;;15.70;99.90;;;;;;5055550;28;20219;-76
2023/01/04 12:09:23;;;;;;;8.43;3.60;;;15.70;99.90;;;;;;5060143;28;20187;-75
2023/01/04 12:11:58;;;;;;;10.27;4.03;;;15.60;99.90;;;;;;5046845;28;20187;-75
2023/01/04 12:14:36;;;;;;;10.17;4.07;;;15.60;99.90;;;;;;5047170;28;20194;-77
2023/01/04 12:17:23;;;;;;;6.87;3.60;;;15.60;99.90;;;;;;5040230;28;20199;-77
2023/01/04 12:19:53;;;;;;;5.07;3.83;;;15.60;99.90;;;;;;5035912;28;20191;-76
2023/01/04 12:22:39;;;;;;;6.07;3.73;;;15.60;99.90;;;;;;5044092;28;20253;-77
2023/01/04 12:25:42;;;;;;;10.63;3.70;;;15.50;99.90;;;;;;5042756;28;20569;-77
2023/01/04 12:28:34;;;;;;;11.73;4.00;;;15.50;99.90;;;;;;5055293;28;20278;-77
2023/01/04 12:31:19;;;;;;;9.50;3.87;;;15.50;99.90;;;;;;5042354;28;20238;-77
2023/01/04 12:33:47;;;;;;;7.00;3.73;;;15.50;99.90;;;;;;5043631;28;20219;-77
2023/01/04 12:36:20;;;;;;;10.57;3.73;;;15.40;99.90;;;;;;5047251;28;20190;-76
2023/01/04 12:38:55;;;;;;;4.53;3.27;;;15.40;99.90;;;;;;5041872;28;20660;-77
2023/01/04 12:41:59;;;;;;;7.13;3.43;;;15.40;99.90;;;;;;5054548;28;20935;-78
2023/01/04 12:44:37;;;;;;;7.33;4.27;;;15.40;99.90;;;;;;5039801;28;20187;-78
2023/01/04 12:50:30;;;;;;;9.43;3.50;;;15.30;99.90;;;;;;5045210;28;20194;-78
2023/01/04 12:53:03;;;;;;;7.20;3.50;;;15.30;99.90;;;;;;5043738;28;20198;-78
2023/01/04 12:55:33;;;;;;;8.93;3.97;;;15.20;99.90;;;;;;5041021;28;20275;-77
2023/01/04 12:58:02;;;;;;;7.60;3.60;;;15.20;99.90;;;;;;5053664;28;20262;-78
2023/01/04 13:00:50;;;;;;;6.33;3.90;;;15.20;99.90;;;;;;5042758;28;20184;-78
2023/01/04 13:03:16;;;;;;;7.20;3.40;;;15.10;99.90;;;;;;5058573;28;20479;-77
2023/01/04 13:06:06;;;;;;;5.37;3.33;;;15.10;99.90;;;;;;5046649;28;20207;-77
2023/01/04 13:08:44;;;;;;;5.97;3.30;;;15.10;99.90;;;;;;5034965;28;20230;-77
2023/01/04 13:12:03;;;;;;;9.23;3.63;;;15.00;99.90;;;;;;5036622;28;20858;-77
2023/01/04 13:14:42;;;;;;;8.23;3.10;;;14.90;99.90;;;;;;5035181;28;20191;-77
2023/01/04 13:17:21;;;;;;;6.30;3.57;;;14.90;99.90;;;;;;5037713;28;20266;-77
2023/01/04 13:19:48;;;;;;;8.20;3.33;;;14.90;99.90;;;;;;5039330;28;20203;-76
2023/01/04 13:22:26;;;;;;;5.97;3.20;;;14.80;99.90;;;;;;5030811;28;20223;-77
2023/01/04 13:24:55;;;;;;;7.70;4.13;;;14.70;99.90;;;;;;5050062;28;20645;-77
2023/01/04 13:27:23;;;;;;;6.63;3.43;;;14.70;99.90;;;;;;5038071;28;20179;-77
2023/01/04 13:29:51;;;;;;;8.10;3.67;;;14.70;99.90;;;;;;5045258;28;20652;-77
2023/01/04 13:32:35;;;;;;;8.40;3.40;;;14.60;99.90;;;;;;5041291;28;20251;-78
2023/01/04 13:35:12;;;;;;;6.90;3.10;;;14.60;99.90;;;;;;5036685;28;21005;-77
2023/01/04 13:37:48;;;;;;;5.57;3.37;;;14.50;99.90;;;;;;5047414;28;20195;-77
2023/01/04 13:40:34;;;;;;;3.80;2.90;;;14.50;99.90;;;;;;5040214;28;20245;-77
2023/01/04 13:43:42;;;;;;;7.30;3.67;;;14.40;99.90;;;;;;5044592;28;20214;-78
2023/01/04 13:46:25;;;;;;;5.57;3.10;;;14.40;99.90;;;;;;5038650;28;20203;-77
2023/01/04 13:48:59;;;;;;;7.53;3.03;;;14.30;99.90;;;;;;5048616;28;20192;-78
2023/01/04 13:51:36;;;;;;;8.43;3.33;;;14.30;99.90;;;;;;5063929;28;20890;-77
2023/01/04 13:54:06;;;;;;;6.40;3.30;;;14.20;99.90;;;;;;5053475;28;20795;-77
2023/01/04 13:56:34;;;;;;;6.67;3.67;;;14.20;99.90;;;;;;5053744;28;20712;-77
2023/01/04 13:59:01;;;;;;;5.63;3.00;;;14.20;99.90;;;;;;5061203;28;21037;-78
2023/01/04 14:01:49;;;;;;;10.73;3.60;;;14.10;99.90;;;;;;5047532;28;20216;-77
2023/01/04 14:04:28;;;;;;;6.67;3.37;;;14.10;99.90;;;;;;5049462;28;20229;-78
2023/01/04 14:06:59;;;;;;;6.07;2.97;;;14.00;99.90;;;;;;5036505;28;20251;-77
2023/01/04 14:09:31;;;;;;;7.03;3.30;;;13.90;99.90;;;;;;5046961;28;20176;-78
2023/01/04 14:12:06;;;;;;;5.27;3.50;;;13.90;99.90;;;;;;5062388;28;20204;-78
2023/01/04 14:15:13;;;;;;;9.77;3.73;;;13.80;99.90;;;;;;5055454;28;20230;-77